Vail Spirit — C6BQ8 — position and weather

sailwx.info

Track history (hours):
 
Tides and Currents Weather Stations Pressure Air Temp Water Temp Dewpoint Dewpoint Depression Visibility Wind Speed Wind Dir Waves Ship Positions

Vail Spirit

Last reported at 2017-Oct-05 13:33 UTC. Time now 2017-Nov-21 04:23 UTC.
Position N 26°39' W 015°55'.
Warning: this ship's position is 46 days out of date.

Length 275 m; draft 9 m.

Type: Tanker. MMSI: 311000338.

Date/timePositionNaut miles runAvg speedWind from/ knotsBaromVisibWave heightAir tempDewpointWater temp
2017-Oct-05 13:33N 26°39' W 015°55'114.0
2017-Oct-05 13:29N 26°40' W 015°54'4313.5
2017-Oct-05 10:20N 27°18' W 015°33'713.1
2017-Oct-05 09:50N 27°24' W 015°29'1914.0
2017-Oct-05 08:28N 27°41' W 015°20'714.8
2017-Oct-05 08:00N 27°47' W 015°16'714.1
2017-Oct-05 07:30N 27°54' W 015°15'714.2
2017-Oct-05 07:00N 28°01' W 015°16'714.2
2017-Oct-05 06:30N 28°07' W 015°20'4 7.0
2017-Oct-05 06:00N 28°08' W 015°24'0 0.5
2017-Oct-05 05:30N 28°09' W 015°24'0 0.1
2017-Oct-05 05:00N 28°09' W 015°24'0 0.0
2017-Oct-05 04:30N 28°08' W 015°24'0 0.1
2017-Oct-05 04:00N 28°09' W 015°24'0 0.0
2017-Oct-05 03:30N 28°09' W 015°24'0 0.0
2017-Oct-05 03:00N 28°09' W 015°24'0 0.0
2017-Oct-05 02:30N 28°09' W 015°24'0 0.1
2017-Oct-05 02:00N 28°09' W 015°24'0 0.0
2017-Oct-05 01:30N 28°09' W 015°24'0 0.0
2017-Oct-05 00:48N 28°09' W 015°24'0 0.1
2017-Oct-05 00:21N 28°09' W 015°24'0 0.0
2017-Oct-04 23:54N 28°09' W 015°24'0 0.0
2017-Oct-04 23:24N 28°09' W 015°24'0 0.0
2017-Oct-04 22:54N 28°09' W 015°24'0 0.0
2017-Oct-04 22:24N 28°09' W 015°24'0 0.0
2017-Oct-04 21:54N 28°09' W 015°24'0 0.0
2017-Oct-04 21:24N 28°09' W 015°24'0 0.1
2017-Oct-04 20:57N 28°09' W 015°24'1 1.9
2017-Oct-04 20:30N 28°08' W 015°23'2 3.9
2017-Oct-04 20:00N 28°08' W 015°21'4 7.7
2017-Oct-04 19:30N 28°10' W 015°17'4 8.6
2017-Oct-04 19:00N 28°14' W 015°16'510.3
2017-Oct-04 18:30N 28°19' W 015°14'713.2
2017-Oct-04 18:00N 28°26' W 015°13'713.8
2017-Oct-04 17:30N 28°32' W 015°11'713.8
2017-Oct-04 17:00N 28°39' W 015°09'713.8
2017-Oct-04 16:30N 28°46' W 015°07'713.8
2017-Oct-04 16:00N 28°52' W 015°05'713.7
2017-Oct-04 15:30N 28°59' W 015°02'713.7
2017-Oct-04 14:57N 29°06' W 014°60'613.6
2017-Oct-04 14:30N 29°12' W 014°58'1413.3
2017-Oct-04 13:26N 29°26' W 014°55'613.1
2017-Oct-04 13:00N 29°31' W 014°54'713.1
2017-Oct-04 12:28N 29°38' W 014°52'613.1
2017-Oct-04 12:00N 29°44' W 014°50'713.2
2017-Oct-04 11:30N 29°50' W 014°48'713.5
2017-Oct-04 11:00N 29°57' W 014°46'4514.1
2017-Oct-04 07:49N 30°41' W 014°33'7414.8
2017-Oct-04 02:47N 31°53' W 014°12'414.4
2017-Oct-04 02:30N 31°57' W 014°11'814.4
2017-Oct-04 01:57N 32°05' W 014°10'13413.9
2017-Oct-03 16:20N 34°14' W 013°29'513.9
2017-Oct-03 15:59N 34°18' W 013°27'13014.1
2017-Oct-03 06:45N 36°25' W 012°49'314.0
2017-Oct-03 06:30N 36°28' W 012°48'1514.0
2017-Oct-03 05:25N 36°43' W 012°46'1413.9
2017-Oct-03 04:25N 36°55' W 012°38'1214.0
2017-Oct-03 03:33N 37°07' W 012°34'114.3
2017-Oct-03 03:30N 37°08' W 012°34'1214.2
2017-Oct-03 02:41N 37°19' W 012°30'314.2
2017-Oct-03 02:29N 37°22' W 012°29'714.0
2017-Oct-03 02:00N 37°28' W 012°27'713.9
2017-Oct-03 01:30N 37°35' W 012°24'1014.3
2017-Oct-03 00:47N 37°45' W 012°22'414.3
2017-Oct-03 00:30N 37°49' W 012°21'714.3
2017-Oct-03 00:00N 37°56' W 012°18'814.1
2017-Oct-02 23:27N 38°03' W 012°16'614.1
2017-Oct-02 23:00N 38°10' W 012°14'714.0
2017-Oct-02 22:30N 38°16' W 012°12'714.3
2017-Oct-02 22:00N 38°23' W 012°10'814.3
2017-Oct-02 21:28N 38°31' W 012°07'714.3
2017-Oct-02 21:00N 38°37' W 012°05'1014.4
2017-Oct-02 20:18N 38°47' W 012°02'714.3
2017-Oct-02 19:48N 38°54' W 011°60'513.7
2017-Oct-02 19:26N 38°59' W 011°58'1113.7
2017-Oct-02 18:37N 39°10' W 011°54'113.7
2017-Oct-02 18:30N 39°11' W 011°54'713.9
2017-Oct-02 18:00N 39°18' W 011°52'714.0
2017-Oct-02 17:29N 39°25' W 011°49'714.0
2017-Oct-02 17:00N 39°32' W 011°47'713.8
2017-Oct-02 16:30N 39°38' W 011°45'813.8
2017-Oct-02 15:55N 39°46' W 011°42'  
2017-Sep-30 01:21N 51°53' W 005°52'1011.3
2017-Sep-30 00:28N 52°03' W 005°48'611.7
2017-Sep-29 23:59N 52°08' W 005°46'612.6
2017-Sep-29 23:30N 52°14' W 005°43'1913.4
2017-Sep-29 22:04N 52°33' W 005°35'114.0
2017-Sep-29 22:00N 52°33' W 005°35'9313.4
2017-Sep-29 15:02N 54°05' W 005°06'113.4
2017-Sep-29 14:59N 54°06' W 005°06'613.4
2017-Sep-29 14:30N 54°12' W 005°05'713.4
2017-Sep-29 14:00N 54°19' W 005°04'612.0
2017-Sep-29 13:30N 54°25' W 005°04'510.9
2017-Sep-29 13:00N 54°30' W 005°05'713.9
2017-Sep-29 12:31N 54°36' W 005°10'713.8
2017-Sep-29 12:01N 54°43' W 005°16'611.0
2017-Sep-29 11:30N 54°48' W 005°20'5 9.8
2017-Sep-29 11:01N 54°52' W 005°23'5 9.4
2017-Sep-29 10:31N 54°57' W 005°22'5 9.1
2017-Sep-29 10:01N 55°01' W 005°20'5 9.2
2017-Sep-29 09:31N 55°05' W 005°17'5 9.4
2017-Sep-29 09:00N 55°10' W 005°15'24 9.4
2017-Sep-29 06:24N 55°32' W 004°55'410.1
2017-Sep-29 05:59N 55°36' W 004°56'5 9.9
2017-Sep-29 05:29N 55°41' W 004°59'511.1
2017-Sep-29 05:00N 55°46' W 004°59'3 6.6
2017-Sep-29 04:30N 55°49' W 004°58'3 0.1
2017-Sep-27 06:51N 55°52' W 004°56'410.7
2017-Sep-27 06:29N 55°49' W 004°57'5 9.9
2017-Sep-27 06:00N 55°44' W 004°59'3 5.4
2017-Sep-27 05:30N 55°41' W 004°59'3 5.5
2017-Sep-27 05:00N 55°39' W 004°57'510.2
2017-Sep-27 04:30N 55°34' W 004°56'3011.8
2017-Sep-27 01:58N 55°06' W 005°17'611.9
2017-Sep-27 01:30N 55°01' W 005°19'611.6
2017-Sep-27 01:00N 54°55' W 005°22'611.2
2017-Sep-27 00:30N 54°50' W 005°21'611.1
2017-Sep-27 00:00N 54°45' W 005°17'611.4
2017-Sep-26 23:30N 54°39' W 005°13'611.4
2017-Sep-26 23:00N 54°34' W 005°09'611.7
2017-Sep-26 22:30N 54°29' W 005°04'611.4
2017-Sep-26 22:00N 54°23' W 005°04'612.0
2017-Sep-26 21:30N 54°17' W 005°04'612.2
2017-Sep-26 21:00N 54°11' W 005°05'912.1
2017-Sep-26 20:14N 54°02' W 005°07'312.1
2017-Sep-26 20:00N 53°59' W 005°07'6811.5
2017-Sep-26 14:05N 52°51' W 005°20'113.0
2017-Sep-26 14:00N 52°50' W 005°21'1813.4
2017-Sep-26 12:37N 52°33' W 005°28'213.7
2017-Sep-26 12:30N 52°31' W 005°28'713.8
2017-Sep-26 12:00N 52°24' W 005°31'714.1
2017-Sep-26 11:30N 52°17' W 005°33'713.9
2017-Sep-26 11:00N 52°11' W 005°38'714.2
2017-Sep-26 10:30N 52°04' W 005°41'1413.7
2017-Sep-26 09:30N 51°51' W 005°47'613.0
2017-Sep-26 09:00N 51°45' W 005°50'612.7
2017-Sep-26 08:30N 51°39' W 005°52'612.2
2017-Sep-26 08:00N 51°33' W 005°54'612.0
2017-Sep-26 07:30N 51°27' W 005°56'611.8
2017-Sep-26 07:00N 51°21' W 005°59'611.9
2017-Sep-26 06:29N 51°15' W 006°03'611.8
2017-Sep-26 06:00N 51°10' W 006°05'611.8
2017-Sep-26 05:30N 51°04' W 006°08'611.9
2017-Sep-26 05:00N 50°58' W 006°11'611.7
2017-Sep-26 04:30N 50°53' W 006°13'611.8
2017-Sep-26 04:00N 50°47' W 006°16'1311.7
2017-Sep-26 02:55N 50°35' W 006°22'511.5
2017-Sep-26 02:29N 50°30' W 006°24'711.4
2017-Sep-26 01:55N 50°24' W 006°27'511.2
2017-Sep-26 01:30N 50°20' W 006°29'511.0
2017-Sep-26 01:00N 50°14' W 006°31'611.0
2017-Sep-26 00:30N 50°09' W 006°34'510.9
2017-Sep-26 00:00N 50°04' W 006°36'510.8
2017-Sep-25 23:30N 49°59' W 006°39'510.6
2017-Sep-25 23:00N 49°54' W 006°41'510.7
2017-Sep-25 22:30N 49°49' W 006°43'510.6
2017-Sep-25 22:00N 49°44' W 006°46'510.7
2017-Sep-25 21:30N 49°38' W 006°48'510.9
2017-Sep-25 21:00N 49°33' W 006°51'611.1
2017-Sep-25 20:30N 49°28' W 006°54'1111.6
2017-Sep-25 19:32N 49°18' W 007°01'011.9
2017-Sep-25 19:30N 49°17' W 007°01'1311.9
2017-Sep-25 18:22N 49°05' W 007°09'912.0
2017-Sep-25 17:39N 48°57' W 007°14'212.2
2017-Sep-25 17:30N 48°55' W 007°14'  
Track history (hours):
 
Tides and Currents Weather Stations Pressure Air Temp Water Temp Dewpoint Dewpoint Depression Visibility Wind Speed Wind Dir Waves Ship Positions

Vail Spirit

Last reported at 2017-Oct-05 13:33 UTC. Time now 2017-Nov-21 04:23 UTC.
Position N 26°39' W 015°55'.
Warning: this ship's position is 46 days out of date.

Length 275 m; draft 9 m.

Type: Tanker. MMSI: 311000338.

Date/timePositionNaut miles runAvg speedWind from/ knotsBaromVisibWave heightAir tempDewpointWater temp
2017-Oct-05 13:33N 26°39' W 015°55'114.0
2017-Oct-05 13:29N 26°40' W 015°54'4313.5
2017-Oct-05 10:20N 27°18' W 015°33'713.1
2017-Oct-05 09:50N 27°24' W 015°29'1914.0
2017-Oct-05 08:28N 27°41' W 015°20'714.8
2017-Oct-05 08:00N 27°47' W 015°16'714.1
2017-Oct-05 07:30N 27°54' W 015°15'714.2
2017-Oct-05 07:00N 28°01' W 015°16'714.2
2017-Oct-05 06:30N 28°07' W 015°20'4 7.0
2017-Oct-05 06:00N 28°08' W 015°24'0 0.5
2017-Oct-05 05:30N 28°09' W 015°24'0 0.1
2017-Oct-05 05:00N 28°09' W 015°24'0 0.0
2017-Oct-05 04:30N 28°08' W 015°24'0 0.1
2017-Oct-05 04:00N 28°09' W 015°24'0 0.0
2017-Oct-05 03:30N 28°09' W 015°24'0 0.0
2017-Oct-05 03:00N 28°09' W 015°24'0 0.0
2017-Oct-05 02:30N 28°09' W 015°24'0 0.1
2017-Oct-05 02:00N 28°09' W 015°24'0 0.0
2017-Oct-05 01:30N 28°09' W 015°24'0 0.0
2017-Oct-05 00:48N 28°09' W 015°24'0 0.1
2017-Oct-05 00:21N 28°09' W 015°24'0 0.0
2017-Oct-04 23:54N 28°09' W 015°24'0 0.0
2017-Oct-04 23:24N 28°09' W 015°24'0 0.0
2017-Oct-04 22:54N 28°09' W 015°24'0 0.0
2017-Oct-04 22:24N 28°09' W 015°24'0 0.0
2017-Oct-04 21:54N 28°09' W 015°24'0 0.0
2017-Oct-04 21:24N 28°09' W 015°24'0 0.1
2017-Oct-04 20:57N 28°09' W 015°24'1 1.9
2017-Oct-04 20:30N 28°08' W 015°23'2 3.9
2017-Oct-04 20:00N 28°08' W 015°21'4 7.7
2017-Oct-04 19:30N 28°10' W 015°17'4 8.6
2017-Oct-04 19:00N 28°14' W 015°16'510.3
2017-Oct-04 18:30N 28°19' W 015°14'713.2
2017-Oct-04 18:00N 28°26' W 015°13'713.8
2017-Oct-04 17:30N 28°32' W 015°11'713.8
2017-Oct-04 17:00N 28°39' W 015°09'713.8
2017-Oct-04 16:30N 28°46' W 015°07'713.8
2017-Oct-04 16:00N 28°52' W 015°05'713.7
2017-Oct-04 15:30N 28°59' W 015°02'713.7
2017-Oct-04 14:57N 29°06' W 014°60'613.6
2017-Oct-04 14:30N 29°12' W 014°58'1413.3
2017-Oct-04 13:26N 29°26' W 014°55'613.1
2017-Oct-04 13:00N 29°31' W 014°54'713.1
2017-Oct-04 12:28N 29°38' W 014°52'613.1
2017-Oct-04 12:00N 29°44' W 014°50'713.2
2017-Oct-04 11:30N 29°50' W 014°48'713.5
2017-Oct-04 11:00N 29°57' W 014°46'4514.1
2017-Oct-04 07:49N 30°41' W 014°33'7414.8
2017-Oct-04 02:47N 31°53' W 014°12'414.4
2017-Oct-04 02:30N 31°57' W 014°11'814.4
2017-Oct-04 01:57N 32°05' W 014°10'13413.9
2017-Oct-03 16:20N 34°14' W 013°29'513.9
2017-Oct-03 15:59N 34°18' W 013°27'13014.1
2017-Oct-03 06:45N 36°25' W 012°49'314.0
2017-Oct-03 06:30N 36°28' W 012°48'1514.0
2017-Oct-03 05:25N 36°43' W 012°46'1413.9
2017-Oct-03 04:25N 36°55' W 012°38'1214.0
2017-Oct-03 03:33N 37°07' W 012°34'114.3
2017-Oct-03 03:30N 37°08' W 012°34'1214.2
2017-Oct-03 02:41N 37°19' W 012°30'314.2
2017-Oct-03 02:29N 37°22' W 012°29'714.0
2017-Oct-03 02:00N 37°28' W 012°27'713.9
2017-Oct-03 01:30N 37°35' W 012°24'1014.3
2017-Oct-03 00:47N 37°45' W 012°22'414.3
2017-Oct-03 00:30N 37°49' W 012°21'714.3
2017-Oct-03 00:00N 37°56' W 012°18'814.1
2017-Oct-02 23:27N 38°03' W 012°16'614.1
2017-Oct-02 23:00N 38°10' W 012°14'714.0
2017-Oct-02 22:30N 38°16' W 012°12'714.3
2017-Oct-02 22:00N 38°23' W 012°10'814.3
2017-Oct-02 21:28N 38°31' W 012°07'714.3
2017-Oct-02 21:00N 38°37' W 012°05'1014.4
2017-Oct-02 20:18N 38°47' W 012°02'714.3
2017-Oct-02 19:48N 38°54' W 011°60'513.7
2017-Oct-02 19:26N 38°59' W 011°58'1113.7
2017-Oct-02 18:37N 39°10' W 011°54'113.7
2017-Oct-02 18:30N 39°11' W 011°54'713.9
2017-Oct-02 18:00N 39°18' W 011°52'714.0
2017-Oct-02 17:29N 39°25' W 011°49'714.0
2017-Oct-02 17:00N 39°32' W 011°47'713.8
2017-Oct-02 16:30N 39°38' W 011°45'813.8
2017-Oct-02 15:55N 39°46' W 011°42'  
2017-Sep-30 01:21N 51°53' W 005°52'1011.3
2017-Sep-30 00:28N 52°03' W 005°48'611.7
2017-Sep-29 23:59N 52°08' W 005°46'612.6
2017-Sep-29 23:30N 52°14' W 005°43'1913.4
2017-Sep-29 22:04N 52°33' W 005°35'114.0
2017-Sep-29 22:00N 52°33' W 005°35'9313.4
2017-Sep-29 15:02N 54°05' W 005°06'113.4
2017-Sep-29 14:59N 54°06' W 005°06'613.4
2017-Sep-29 14:30N 54°12' W 005°05'713.4
2017-Sep-29 14:00N 54°19' W 005°04'612.0
2017-Sep-29 13:30N 54°25' W 005°04'510.9
2017-Sep-29 13:00N 54°30' W 005°05'713.9
2017-Sep-29 12:31N 54°36' W 005°10'713.8
2017-Sep-29 12:01N 54°43' W 005°16'611.0
2017-Sep-29 11:30N 54°48' W 005°20'5 9.8
2017-Sep-29 11:01N 54°52' W 005°23'5 9.4
2017-Sep-29 10:31N 54°57' W 005°22'5 9.1
2017-Sep-29 10:01N 55°01' W 005°20'5 9.2
2017-Sep-29 09:31N 55°05' W 005°17'5 9.4
2017-Sep-29 09:00N 55°10' W 005°15'24 9.4
2017-Sep-29 06:24N 55°32' W 004°55'410.1
2017-Sep-29 05:59N 55°36' W 004°56'5 9.9
2017-Sep-29 05:29N 55°41' W 004°59'511.1
2017-Sep-29 05:00N 55°46' W 004°59'3 6.6
2017-Sep-29 04:30N 55°49' W 004°58'3 0.1
2017-Sep-27 06:51N 55°52' W 004°56'410.7
2017-Sep-27 06:29N 55°49' W 004°57'5 9.9
2017-Sep-27 06:00N 55°44' W 004°59'3 5.4
2017-Sep-27 05:30N 55°41' W 004°59'3 5.5
2017-Sep-27 05:00N 55°39' W 004°57'510.2
2017-Sep-27 04:30N 55°34' W 004°56'3011.8
2017-Sep-27 01:58N 55°06' W 005°17'611.9
2017-Sep-27 01:30N 55°01' W 005°19'611.6
2017-Sep-27 01:00N 54°55' W 005°22'611.2
2017-Sep-27 00:30N 54°50' W 005°21'611.1
2017-Sep-27 00:00N 54°45' W 005°17'611.4
2017-Sep-26 23:30N 54°39' W 005°13'611.4
2017-Sep-26 23:00N 54°34' W 005°09'611.7
2017-Sep-26 22:30N 54°29' W 005°04'611.4
2017-Sep-26 22:00N 54°23' W 005°04'612.0
2017-Sep-26 21:30N 54°17' W 005°04'612.2
2017-Sep-26 21:00N 54°11' W 005°05'912.1
2017-Sep-26 20:14N 54°02' W 005°07'312.1
2017-Sep-26 20:00N 53°59' W 005°07'6811.5
2017-Sep-26 14:05N 52°51' W 005°20'113.0
2017-Sep-26 14:00N 52°50' W 005°21'1813.4
2017-Sep-26 12:37N 52°33' W 005°28'213.7
2017-Sep-26 12:30N 52°31' W 005°28'713.8
2017-Sep-26 12:00N 52°24' W 005°31'714.1
2017-Sep-26 11:30N 52°17' W 005°33'713.9
2017-Sep-26 11:00N 52°11' W 005°38'714.2
2017-Sep-26 10:30N 52°04' W 005°41'1413.7
2017-Sep-26 09:30N 51°51' W 005°47'613.0
2017-Sep-26 09:00N 51°45' W 005°50'612.7
2017-Sep-26 08:30N 51°39' W 005°52'612.2
2017-Sep-26 08:00N 51°33' W 005°54'612.0
2017-Sep-26 07:30N 51°27' W 005°56'611.8
2017-Sep-26 07:00N 51°21' W 005°59'611.9
2017-Sep-26 06:29N 51°15' W 006°03'611.8
2017-Sep-26 06:00N 51°10' W 006°05'611.8
2017-Sep-26 05:30N 51°04' W 006°08'611.9
2017-Sep-26 05:00N 50°58' W 006°11'611.7
2017-Sep-26 04:30N 50°53' W 006°13'611.8
2017-Sep-26 04:00N 50°47' W 006°16'1311.7
2017-Sep-26 02:55N 50°35' W 006°22'511.5
2017-Sep-26 02:29N 50°30' W 006°24'711.4
2017-Sep-26 01:55N 50°24' W 006°27'511.2
2017-Sep-26 01:30N 50°20' W 006°29'511.0
2017-Sep-26 01:00N 50°14' W 006°31'611.0
2017-Sep-26 00:30N 50°09' W 006°34'510.9
2017-Sep-26 00:00N 50°04' W 006°36'510.8
2017-Sep-25 23:30N 49°59' W 006°39'510.6
2017-Sep-25 23:00N 49°54' W 006°41'510.7
2017-Sep-25 22:30N 49°49' W 006°43'510.6
2017-Sep-25 22:00N 49°44' W 006°46'510.7
2017-Sep-25 21:30N 49°38' W 006°48'510.9
2017-Sep-25 21:00N 49°33' W 006°51'611.1
2017-Sep-25 20:30N 49°28' W 006°54'1111.6
2017-Sep-25 19:32N 49°18' W 007°01'011.9
2017-Sep-25 19:30N 49°17' W 007°01'1311.9
2017-Sep-25 18:22N 49°05' W 007°09'912.0
2017-Sep-25 17:39N 48°57' W 007°14'212.2
2017-Sep-25 17:30N 48°55' W 007°14'  

Dump ship's entire track history